Time;durP1;ratioP1;P1;durP2;ratioP2;P2;SDS_P1;SDS_P2;PMS_P1;PMS_P2;Temp;Humidity;BMP_temperature;BMP_pressure;BME280_temperature;BME280_humidity;BME280_pressure;Samples;Min_cycle;Max_cycle;Signal;HPM_P1;HPM_P2
2023/04/10 00:01:21;;;;;;;11.20;9.70;;;;;;;10.40;100.00;100287.67;108966;1257;62646;-76
2023/04/10 00:04:03;;;;;;;11.60;10.30;;;;;;;10.39;100.00;100285.92;108982;1260;60601;-74
2023/04/10 00:06:34;;;;;;;;;;;;;;;10.34;100.00;100286.85;109062;1260;74542;-73
2023/04/10 00:09:02;;;;;;;12.90;11.60;;;;;;;10.31;100.00;100291.12;109122;1258;68930;-73
2023/04/10 00:11:31;;;;;;;14.20;12.20;;;;;;;10.27;100.00;100290.91;109055;1257;71442;-76
2023/04/10 00:14:00;;;;;;;12.30;11.10;;;;;;;10.20;100.00;100288.91;109023;1260;62077;-75
2023/04/10 00:16:31;;;;;;;15.10;11.70;;;;;;;10.19;100.00;100290.46;109136;1259;59192;-76
2023/04/10 00:19:00;;;;;;;17.30;12.40;;;;;;;10.17;100.00;100288.42;109073;1257;71955;-74
2023/04/10 00:21:28;;;;;;;16.00;13.30;;;;;;;10.13;100.00;100287.27;109087;1260;67304;-74
2023/04/10 00:24:00;;;;;;;14.00;12.50;;;;;;;10.13;100.00;100287.67;108993;1257;73651;-74
2023/04/10 00:26:29;;;;;;;13.40;12.00;;;;;;;10.12;100.00;100288.37;109089;1257;62374;-73
2023/04/10 00:28:59;;;;;;;14.10;12.50;;;;;;;10.10;100.00;100288.60;109069;1257;60187;-75
2023/04/10 00:31:47;;;;;;;13.40;12.00;;;;;;;10.08;100.00;100289.73;109132;1260;71848;-75
2023/04/10 00:34:16;;;;;;;13.90;12.10;;;;;;;10.09;100.00;100284.11;109088;1257;67043;-73
2023/04/10 00:36:46;;;;;;;17.30;13.70;;;;;;;10.13;100.00;100287.15;109102;1257;71363;-73
2023/04/10 00:39:15;;;;;;;15.80;14.20;;;;;;;10.14;100.00;100285.47;109097;1257;60087;-73
2023/04/10 00:41:47;;;;;;;14.30;12.90;;;;;;;10.14;100.00;100284.11;109088;1257;58794;-75
2023/04/10 00:44:16;;;;;;;15.30;13.80;;;;;;;10.10;100.00;100286.98;109119;1258;74586;-76
2023/04/10 00:46:44;;;;;;;16.00;14.50;;;;;;;10.09;100.00;100285.17;109110;1257;68616;-76
2023/04/10 00:49:13;;;;;;;17.90;13.80;;;;;;;10.12;100.00;100287.04;109076;1260;72326;-77
2023/04/10 00:51:42;;;;;;;17.90;13.30;;;;;;;10.15;100.00;100281.13;109080;1260;62297;-78
2023/04/10 00:54:12;;;;;;;13.90;12.40;;;;;;;10.18;100.00;100283.70;109091;1259;58483;-76
2023/04/10 00:56:40;;;;;;;15.70;13.00;;;;;;;10.20;100.00;100285.20;109090;1259;71640;-74
2023/04/10 00:59:09;;;;;;;19.70;13.40;;;;;;;10.23;100.00;100283.52;109022;1259;67725;-74
2023/04/10 01:01:40;;;;;;;15.50;13.80;;;;;;;10.28;100.00;100282.33;108966;1259;70231;-74
2023/04/10 01:04:13;;;;;;;18.00;13.90;;;;;;;10.28;100.00;100286.95;109049;1260;60984;-74
2023/04/10 01:06:59;;;;;;;16.90;14.30;;;;;;;10.27;100.00;100283.80;109033;1260;58940;-74
2023/04/10 01:09:40;;;;;;;14.80;13.30;;;;;;;10.30;100.00;100287.59;108995;1263;73534;-74
2023/04/10 01:12:25;;;;;;;13.20;11.80;;;;;;;10.33;100.00;100282.90;109065;1259;68988;-74
2023/04/10 01:15:03;;;;;;;15.00;13.40;;;;;;;10.35;100.00;100280.20;109096;1260;72630;-74
2023/04/10 01:17:39;;;;;;;16.70;14.10;;;;;;;10.32;100.00;100281.84;109035;1260;62328;-75
2023/04/10 01:20:25;;;;;;;14.80;13.40;;;;;;;10.28;100.00;100277.98;109080;1260;61049;-74
2023/04/10 01:23:31;;;;;;;15.00;13.50;;;;;;;10.29;100.00;100276.60;108950;1259;71264;-75
2023/04/10 01:26:02;;;;;;;15.40;12.90;;;;;;;10.34;100.00;100277.34;109092;1258;67507;-75
2023/04/10 01:29:01;;;;;;;14.80;13.30;;;;;;;10.33;100.00;100274.24;108974;1259;72880;-74
2023/04/10 01:31:41;;;;;;;16.20;13.40;;;;;;;10.38;100.00;100276.11;108958;1259;63343;-73
2023/04/10 01:34:15;;;;;;;13.00;11.80;;;;;;;10.41;100.00;100274.91;108969;1260;59237;-73
2023/04/10 01:36:48;;;;;;;14.60;13.10;;;;;;;10.40;100.00;100274.39;109030;1259;74206;-74
2023/04/10 01:39:20;;;;;;;15.50;13.00;;;;;;;10.33;100.00;100275.08;109021;1259;68964;-75
2023/04/10 01:41:51;;;;;;;15.10;13.50;;;;;;;10.25;100.00;100269.19;108995;1260;72629;-75
2023/04/10 01:44:27;;;;;;;16.60;13.60;;;;;;;10.25;100.00;100273.29;108973;1259;61320;-75
2023/04/10 01:46:55;;;;;;;11.50;10.40;;;;;;;10.27;100.00;100269.63;108929;1261;58453;-75
2023/04/10 01:49:27;;;;;;;16.30;13.60;;;;;;;10.30;100.00;100276.84;109013;1260;73843;-75
2023/04/10 01:52:04;;;;;;;13.50;12.10;;;;;;;10.28;100.00;100276.16;108963;1260;66407;-74
2023/04/10 01:54:40;;;;;;;17.10;13.30;;;;;;;10.29;100.00;100277.48;108845;1260;72757;-76
2023/04/10 01:57:15;;;;;;;13.70;11.80;;;;;;;10.26;100.00;100278.15;108928;1264;62234;-76
2023/04/10 01:59:58;;;;;;;14.10;12.60;;;;;;;10.23;100.00;100279.80;109017;1260;61110;-75
2023/04/10 02:02:33;;;;;;;14.30;12.90;;;;;;;10.22;100.00;100277.67;108949;1259;72081;-75
2023/04/10 02:05:09;;;;;;;15.30;13.70;;;;;;;10.19;100.00;100279.17;108994;1259;66642;-75
2023/04/10 02:07:50;;;;;;;14.70;13.20;;;;;;;10.23;100.00;100283.86;109041;1261;72673;-75
2023/04/10 02:10:51;;;;;;;12.40;11.10;;;;;;;10.26;100.00;100283.52;109003;1259;61894;-74
2023/04/10 02:13:22;;;;;;;17.00;15.30;;;;;;;10.27;100.00;100284.36;108991;1260;59503;-74
2023/04/10 02:15:54;;;;;;;16.20;14.20;;;;;;;10.24;100.00;100283.14;108933;1259;72499;-74
2023/04/10 02:18:27;;;;;;;17.40;14.80;;;;;;;10.23;100.00;100282.05;109004;1260;68037;-74
2023/04/10 02:20:58;;;;;;;16.10;14.50;;;;;;;10.18;100.00;100281.84;108969;1260;70716;-75
2023/04/10 02:23:33;;;;;;;15.90;14.30;;;;;;;10.13;100.00;100282.27;108922;1260;61696;-75
2023/04/10 02:26:07;;;;;;;16.10;14.20;;;;;;;10.13;100.00;100285.85;109040;1258;61320;-75
2023/04/10 02:28:41;;;;;;;15.90;12.80;;;;;;;10.16;100.00;100282.73;108976;1260;72939;-74
2023/04/10 02:31:10;;;;;;;14.50;12.30;;;;;;;10.23;100.00;100287.27;109056;1259;68063;-73
2023/04/10 02:33:43;;;;;;;19.50;13.70;;;;;;;10.27;100.00;100290.11;109036;1260;72498;-75
2023/04/10 02:36:14;;;;;;;18.20;15.90;;;;;;;10.35;100.00;100285.35;109029;1260;60716;-74
2023/04/10 02:38:46;;;;;;;16.90;14.40;;;;;;;10.43;100.00;100287.96;109013;1260;61321;-75
2023/04/10 02:41:19;;;;;;;18.20;14.70;;;;;;;10.46;100.00;100285.96;109059;1261;71709;-76
2023/04/10 02:43:49;;;;;;;19.40;15.20;;;;;;;10.44;100.00;100286.76;109066;1260;67637;-75
2023/04/10 02:46:25;;;;;;;16.80;15.20;;;;;;;10.42;100.00;100289.55;109002;1259;70885;-74
2023/04/10 02:57:05;;;;;;;17.10;14.40;;;;;;;10.44;100.00;100295.36;102858;1294;600078;-77
2023/04/10 02:59:35;;;;;;;15.70;14.20;;;;;;;10.44;100.00;100295.20;105622;1260;61851;-76
2023/04/10 03:02:04;;;;;;;16.10;13.80;;;;;;;10.46;100.00;100294.70;105477;1257;61190;-75
2023/04/10 03:04:34;;;;;;;17.90;15.00;;;;;;;10.43;100.00;100296.13;105653;1258;73360;-77
2023/04/10 03:07:05;;;;;;;16.60;14.90;;;;;;;10.36;100.00;100298.40;105636;1260;69164;-74
2023/04/10 03:09:36;;;;;;;18.40;15.60;;;;;;;10.30;100.00;100298.25;105155;1256;645582;-74
2023/04/10 03:12:04;;;;;;;17.90;16.00;;;;;;;10.27;100.00;100295.86;105789;1257;63828;-76
2023/04/10 03:14:34;;;;;;;17.60;15.10;;;;;;;10.24;100.00;100294.77;105765;1256;62696;-75
2023/04/10 03:17:03;;;;;;;16.30;14.50;;;;;;;10.22;100.00;100296.02;105834;1258;73078;-76
2023/04/10 03:19:31;;;;;;;14.50;12.80;;;;;;;10.21;100.00;100297.71;105758;1259;69356;-75
2023/04/10 03:22:01;;;;;;;16.70;15.00;;;;;;;10.17;100.00;100300.07;106145;1251;74446;-74
2023/04/10 03:24:29;;;;;;;18.50;14.80;;;;;;;10.16;100.00;100299.37;106178;1257;61966;-75
2023/04/10 03:26:59;;;;;;;16.70;14.00;;;;;;;10.14;100.00;100298.04;105868;1252;61599;-74
2023/04/10 03:29:28;;;;;;;15.90;13.60;;;;;;;10.13;100.00;100299.56;106002;1256;72579;-76
2023/04/10 03:31:56;;;;;;;14.80;12.90;;;;;;;10.16;100.00;100302.51;105939;1254;67559;-76
2023/04/10 03:34:26;;;;;;;18.70;14.90;;;;;;;10.17;100.00;100300.88;106127;1251;74283;-76
2023/04/10 03:36:54;;;;;;;16.50;13.60;;;;;;;10.12;100.00;100301.88;105856;1254;62253;-75
2023/04/10 03:39:23;;;;;;;16.40;14.30;;;;;;;10.10;100.00;100304.89;105933;1251;59589;-75
2023/04/10 03:41:52;;;;;;;17.80;14.60;;;;;;;10.06;100.00;100303.02;105943;1256;74591;-75
2023/04/10 03:44:24;;;;;;;15.90;14.10;;;;;;;10.05;100.00;100303.27;106076;1251;69722;-75
2023/04/10 03:46:55;;;;;;;16.00;14.30;;;;;;;10.05;100.00;100305.10;106131;1253;74241;-76
2023/04/10 03:49:23;;;;;;;18.30;14.20;;;;;;;10.06;100.00;100305.00;105994;1253;63421;-76
2023/04/10 03:51:55;;;;;;;16.60;14.90;;;;;;;10.06;100.00;100304.38;105988;1251;59830;-72
2023/04/10 03:54:24;;;;;;;19.60;13.80;;;;;;;10.08;100.00;100302.89;106162;1256;74569;-75
2023/04/10 03:56:52;;;;;;;15.10;13.60;;;;;;;10.04;100.00;100304.40;105800;1254;69830;-77
2023/04/10 03:59:21;;;;;;;17.60;14.00;;;;;;;10.02;100.00;100307.54;105806;1254;73561;-74
2023/04/10 04:02:01;;;;;;;15.70;14.00;;;;;;;10.03;100.00;100307.02;105859;1254;63414;-74
2023/04/10 04:04:31;;;;;;;16.10;14.00;;;;;;;10.04;100.00;100307.91;105881;1254;61405;-75
2023/04/10 04:07:14;;;;;;;16.10;14.40;;;;;;;10.01;100.00;100311.48;105906;1254;72820;-74
2023/04/10 04:10:00;;;;;;;17.40;15.60;;;;;;;9.94;100.00;100317.37;106022;1254;69381;-75
2023/04/10 04:12:58;;;;;;;21.20;14.80;;;;;;;9.94;100.00;100316.75;105876;1257;73305;-76
2023/04/10 04:15:43;;;;;;;16.30;14.20;;;;;;;9.92;100.00;100325.14;105955;1257;62968;-75
2023/04/10 04:18:17;;;;;;;19.40;15.20;;;;;;;9.88;100.00;100325.45;105867;1252;62137;-76
2023/04/10 04:20:51;;;;;;;;;;;;;;;9.86;100.00;100327.60;105859;1259;72481;-72
2023/04/10 04:23:38;;;;;;;15.20;12.90;;;;;;;9.89;100.00;100327.21;106175;1254;68783;-75
2023/04/10 04:26:30;;;;;;;16.80;13.90;;;;;;;9.91;100.00;100330.20;105878;1253;72539;-74
2023/04/10 04:29:14;;;;;;;18.60;16.40;;;;;;;9.91;100.00;100332.96;105915;1258;63432;-75
2023/04/10 04:32:05;;;;;;;16.60;14.40;;;;;;;9.90;100.00;100333.98;105838;1254;61207;-74
2023/04/10 04:35:15;;;;;;;16.00;13.60;;;;;;;9.89;100.00;100333.48;105447;1257;73042;-74
2023/04/10 04:38:07;;;;;;;17.70;13.90;;;;;;;9.90;100.00;100336.90;105311;1261;68722;-75
2023/04/10 04:40:47;;;;;;;19.30;14.20;;;;;;;9.94;100.00;100336.88;105729;1256;74186;-72
2023/04/10 04:43:24;;;;;;;14.40;11.80;;;;;;;9.94;100.00;100337.27;105865;1254;63704;-74
2023/04/10 04:46:12;;;;;;;25.90;15.00;;;;;;;9.95;100.00;100339.52;105845;1253;61896;-72
2023/04/10 04:49:11;;;;;;;18.10;15.30;;;;;;;9.97;100.00;100339.93;105365;1263;74531;-74
2023/04/10 04:51:55;;;;;;;;;;;;;;;10.00;100.00;100340.56;105960;1253;66829;-77
2023/04/10 04:54:49;;;;;;;;;;;;;;;10.03;100.00;100341.73;105862;1259;74131;-76
2023/04/10 04:57:37;;;;;;;;;;;;;;;10.00;100.00;100344.33;106186;1256;62563;-74
2023/04/10 05:00:21;;;;;;;;;;;;;;;10.00;100.00;100343.66;105916;1257;59650;-74
2023/04/10 05:03:07;;;;;;;;;;;;;;;10.02;100.00;100343.92;106051;1256;74955;-79
2023/04/10 05:05:55;;;;;;;;;;;;;;;10.08;100.00;100344.77;106037;1256;68637;-75
2023/04/10 05:08:41;;;;;;;;;;;;;;;10.13;100.00;100347.32;105865;1257;74317;-74
2023/04/10 05:11:40;;;;;;;;;;;;;;;10.16;100.00;100350.10;105477;1260;63764;-76
2023/04/10 05:14:31;;;;;;;;;;;;;;;10.15;100.00;100351.88;105975;1255;61408;-73
2023/04/10 05:17:10;;;;;;;;;;;;;;;10.19;100.00;100352.61;105982;1254;74857;-74
2023/04/10 05:19:51;;;;;;;;;;;;;;;10.22;100.00;100355.84;105960;1255;69450;-79
2023/04/10 05:22:44;;;;;;;;;;;;;;;10.26;100.00;100361.33;109502;1253;73698;-76
2023/04/10 05:25:33;;;;;;;;;;;;;;;10.24;100.00;100362.63;109560;1252;63324;-78
2023/04/10 05:28:14;;;;;;;;;;;;;;;10.24;100.00;100360.64;109317;1253;60463;-73
2023/04/10 05:31:03;;;;;;;;;;;;;;;10.28;100.00;100358.89;109294;1252;72845;-74
2023/04/10 05:33:49;;;;;;;;;;;;;;;10.30;100.00;100363.33;109518;1253;68347;-76
2023/04/10 05:36:39;;;;;;;;;;;;;;;10.29;100.00;100360.28;109559;1253;72918;-77
2023/04/10 05:39:17;;;;;;;;;;;;;;;10.28;100.00;100360.91;109397;1253;61657;-74
2023/04/10 05:42:23;;;;;;;;;;;;;;;10.26;100.00;100365.04;108996;1256;58020;-76
2023/04/10 05:45:24;;;;;;;;;;;;;;;10.28;100.00;100363.31;109296;1252;73936;-73
2023/04/10 05:48:24;;;;;;;;;;;;;;;10.28;100.00;100365.34;109486;1253;69129;-73
2023/04/10 05:51:16;;;;;;;;;;;;;;;10.30;100.00;100366.70;109381;1254;71249;-73
2023/04/10 05:54:03;;;;;;;;;;;;;;;10.39;100.00;100368.48;109420;1254;59892;-72
2023/04/10 05:56:47;;;;;;;;;;;;;;;10.41;100.00;100364.55;109390;1254;58832;-73
2023/04/10 05:59:36;;;;;;;;;;;;;;;10.44;100.00;100367.81;109474;1254;74206;-74
2023/04/10 06:02:34;;;;;;;;;;;;;;;10.49;100.00;100366.20;109321;1256;66101;-74
2023/04/10 06:05:06;;;;;;;;;;;;;;;10.49;100.00;100372.32;109449;1254;72446;-74
2023/04/10 06:07:35;;;;;;;;;;;;;;;10.50;100.00;100369.56;109350;1254;62288;-74
2023/04/10 06:10:06;;;;;;;;;;;;;;;10.47;100.00;100369.83;109468;1254;60991;-73
2023/04/10 06:12:35;;;;;;;;;;;;;;;10.48;100.00;100368.11;109396;1253;71927;-74
2023/04/10 06:15:10;;;;;;;;;;;;;;;10.51;100.00;100373.45;109439;1253;67150;-74
2023/04/10 06:17:43;;;;;;;;;;;;;;;10.56;100.00;100377.70;109441;1254;73853;-73
2023/04/10 06:20:11;;;;;;;;;;;;;;;10.60;100.00;100378.30;109438;1254;60439;-75
2023/04/10 06:22:40;;;;;;;;;;;;;;;10.65;100.00;100385.78;109342;1254;59931;-74
2023/04/10 06:25:10;;;;;;;;;;;;;;;10.71;100.00;100386.30;109367;1253;73099;-72
2023/04/10 06:27:38;;;;;;;;;;;;;;;10.74;100.00;100386.86;109480;1254;68636;-73
2023/04/10 06:30:10;;;;;;;;;;;;;;;10.71;100.00;100385.86;109456;1253;73797;-75
2023/04/10 06:32:38;;;;;;;;;;;;;;;10.65;100.00;100384.50;109308;1256;62575;-73
2023/04/10 06:35:07;;;;;;;;;;;;;;;10.65;100.00;100385.77;109494;1253;58852;-73
2023/04/10 06:37:38;;;;;;;;;;;;;;;10.63;100.00;100384.88;109475;1254;72032;-73
2023/04/10 06:40:07;;;;;;;;;;;;;;;10.66;100.00;100385.27;109481;1253;67341;-73
2023/04/10 06:42:35;;;;;;;;;;;;;;;10.66;100.00;100384.35;109445;1256;72410;-75
2023/04/10 06:45:13;;;;;;;;;;;;;;;10.66;100.00;100380.21;109194;1254;62892;-74
2023/04/10 06:47:41;;;;;;;;;;;;;;;10.67;100.00;100379.88;109459;1254;60311;-75
2023/04/10 06:50:14;;;;;;;;;;;;;;;10.70;100.00;100382.48;109213;1254;72634;-76
2023/04/10 06:52:43;;;;;;;;;;;;;;;10.78;100.00;100380.27;109455;1254;69116;-72
2023/04/10 06:55:14;;;;;;;;;;;;;;;10.77;100.00;100383.21;109326;1254;72080;-75
2023/04/10 06:58:02;;;;;;;;;;;;;;;10.77;100.00;100391.07;109429;1254;62041;-74
2023/04/10 07:00:30;;;;;;;;;;;;;;;10.79;100.00;100389.92;109439;1254;60369;-75
2023/04/10 07:02:59;;;;;;;;;;;;;;;10.79;100.00;100386.44;109460;1254;73247;-74
2023/04/10 07:05:29;;;;;;;;;;;;;;;10.79;100.00;100389.52;109426;1254;69636;-73
2023/04/10 07:08:01;;;;;;;;;;;;;;;10.77;100.00;100392.08;109414;1254;73301;-74
2023/04/10 07:10:30;;;;;;;;;;;;;;;10.72;100.00;100394.49;109325;1254;62038;-75
2023/04/10 07:12:58;;;;;;;;;;;;;;;10.73;100.00;100395.83;109329;1254;61222;-72
2023/04/10 07:15:39;;;;;;;;;;;;;;;10.74;100.00;100396.27;109249;1254;72425;-78
2023/04/10 07:18:07;;;;;;;;;;;;;;;10.68;100.00;100402.58;109202;1254;69206;-75
2023/04/10 07:20:35;;;;;;;;;;;;;;;10.62;100.00;100400.89;109390;1255;73425;-75
2023/04/10 07:23:10;;;;;;;;;;;;;;;10.60;100.00;100403.14;109417;1255;61025;-77
2023/04/10 07:25:46;;;;;;;;;;;;;;;10.53;100.00;100406.70;109320;1254;58307;-74
2023/04/10 07:28:14;;;;;;;;;;;;;;;10.50;100.00;100404.04;109333;1254;71839;-75
2023/04/10 07:30:44;;;;;;;;;;;;;;;10.53;100.00;100407.80;109207;1254;67795;-75
2023/04/10 07:33:12;;;;;;;;;;;;;;;10.54;100.00;100406.50;109410;1256;71760;-74
2023/04/10 07:35:41;;;;;;;;;;;;;;;10.53;100.00;100405.23;109396;1256;63175;-75
2023/04/10 07:38:11;;;;;;;;;;;;;;;10.53;100.00;100412.02;109408;1254;60028;-74
2023/04/10 07:40:40;;;;;;;;;;;;;;;10.52;100.00;100411.13;109417;1254;74992;-75
2023/04/10 07:43:08;;;;;;;;;;;;;;;10.52;100.00;100412.37;109425;1254;66884;-73
2023/04/10 07:45:37;;;;;;;;;;;;;;;10.57;100.00;100414.98;109179;1257;71349;-75
2023/04/10 07:48:05;;;;;;;;;;;;;;;10.67;100.00;100416.75;109330;1256;61748;-74
2023/04/10 07:50:40;;;;;;;;;;;;;;;10.70;100.00;100422.08;109349;1255;60740;-74
2023/04/10 07:53:09;;;;;;;;;;;;;;;10.74;100.00;100420.11;109370;1256;73913;-75
2023/04/10 07:55:41;;;;;;;;;;;;;;;10.81;100.00;100419.21;109350;1259;69025;-74
2023/04/10 07:58:14;;;;;;;;;;;;;;;10.82;100.00;100418.11;109318;1257;72080;-76
2023/04/10 08:00:42;;;;;;;;;;;;;;;10.83;100.00;100417.10;109358;1259;61154;-73
2023/04/10 08:03:13;;;;;;;;;;;;;;;10.83;100.00;100422.42;109385;1256;60269;-73
2023/04/10 08:05:43;;;;;;;;;;;;;;;10.77;100.00;100421.30;109350;1255;74116;-75
2023/04/10 08:08:11;;;;;;;;;;;;;;;10.74;100.00;100423.70;109350;1255;66054;-74
2023/04/10 08:10:44;;;;;;;;;;;;;;;10.75;100.00;100423.58;109337;1255;73055;-74
2023/04/10 08:13:14;;;;;;;;;;;;;;;10.82;100.00;100423.02;109333;1256;60712;-74
2023/04/10 08:15:42;;;;;;;;;;;;;;;10.90;100.00;100422.77;109357;1255;59254;-76
2023/04/10 08:18:14;;;;;;;;;;;;;;;10.98;100.00;100421.42;109366;1256;71800;-75
2023/04/10 08:20:42;;;;;;;;;;;;;;;11.03;100.00;100421.54;109276;1257;68372;-77
2023/04/10 08:23:11;;;;;;;;;;;;;;;11.03;100.00;100420.63;109261;1256;72353;-76
2023/04/10 08:25:59;;;;;;;;;;;;;;;11.00;100.00;100420.48;109338;1256;61797;-72
2023/04/10 08:28:31;;;;;;;;;;;;;;;10.96;100.00;100425.41;109352;1257;59113;-73
2023/04/10 08:30:59;;;;;;;;;;;;;;;10.93;100.00;100426.60;109377;1255;74849;-75
2023/04/10 08:33:28;;;;;;;;;;;;;;;10.99;100.00;100423.07;109252;1256;69034;-75
2023/04/10 08:35:58;;;;;;;;;;;;;;;11.07;100.00;100426.36;109247;1256;73728;-73
2023/04/10 08:38:30;;;;;;;;;;;;;;;11.15;100.00;100426.00;109223;1256;61700;-75
2023/04/10 08:40:58;;;;;;;;;;;;;;;11.25;100.00;100425.91;109371;1256;59338;-72
2023/04/10 08:43:26;;;;;;;;;;;;;;;11.34;100.00;100423.73;109260;1257;74284;-73
2023/04/10 08:45:57;;;;;;;;;;;;;;;11.43;100.00;100410.67;109357;1256;68238;-74
2023/04/10 08:48:26;;;;;;;;;;;;;;;11.52;100.00;100410.80;109277;1255;72709;-73
2023/04/10 08:50:55;;;;;;;;;;;;;;;11.61;100.00;100412.23;109196;1257;61207;-73
2023/04/10 08:53:23;;;;;;;;;;;;;;;11.70;100.00;100413.73;109148;1257;58902;-77
2023/04/10 08:55:51;;;;;;;;;;;;;;;11.81;100.00;100413.02;109276;1259;73565;-76
2023/04/10 08:58:20;;;;;;;;;;;;;;;11.92;100.00;100411.14;109253;1255;67912;-76
2023/04/10 09:00:48;;;;;;;;;;;;;;;11.96;98.06;100416.72;109307;1256;71058;-78
2023/04/10 09:03:19;;;;;;;;;;;;;;;12.00;96.75;100412.27;109172;1260;61767;-74
2023/04/10 09:05:47;;;;;;;;;;;;;;;12.05;95.53;100416.89;109231;1255;60748;-76
2023/04/10 09:08:15;;;;;;;;;;;;;;;12.07;94.78;100416.27;109244;1256;72683;-75
2023/04/10 09:10:46;;;;;;;;;;;;;;;12.07;94.76;100420.13;109349;1256;68607;-74
2023/04/10 09:13:15;;;;;;;;;;;;;;;12.11;94.96;100418.29;109289;1255;73958;-76
2023/04/10 09:15:56;;;;;;;;;;;;;;;12.18;95.14;100421.71;109261;1256;61196;-74
2023/04/10 09:18:40;;;;;;;;;;;;;;;12.29;94.38;100422.29;109290;1259;58338;-76
2023/04/10 09:21:09;;;;;;;;;;;;;;;12.41;94.40;100421.42;109276;1255;74051;-74
2023/04/10 09:23:38;;;;;;;;;;;;;;;12.53;92.61;100424.16;109343;1256;68924;-78
2023/04/10 09:26:25;;;;;;;;;;;;;;;12.54;91.08;100422.39;109094;1256;72178;-75
2023/04/10 09:28:57;;;;;;;;;;;;;;;12.52;90.12;100422.84;109218;1256;61847;-75
2023/04/10 09:31:28;;;;;;;;;;;;;;;12.54;90.12;100426.75;109219;1258;61097;-73
2023/04/10 09:34:06;;;;;;;;;;;;;;;12.60;90.15;100429.95;109221;1257;74755;-76
2023/04/10 09:36:36;;;;;;;;;;;;;;;12.61;89.90;100433.41;109150;1256;69161;-79
2023/04/10 09:39:07;;;;;;;;;;;;;;;12.60;90.53;100439.17;109210;1257;72955;-79
2023/04/10 09:41:46;;;;;;;;;;;;;;;12.61;90.72;100440.85;109278;1255;59109;-76
2023/04/10 09:44:17;;;;;;;;;;;;;;;12.50;91.07;100435.71;109312;1255;59218;-74
2023/04/10 09:46:49;;;;;;;;;;;;;;;12.45;91.80;100438.21;109250;1257;72224;-79
2023/04/10 09:49:19;;;;;;;;;;;;;;;12.44;92.10;100441.80;109186;1257;67881;-75
2023/04/10 09:51:50;;;;;;;;;;;;;;;12.45;92.47;100438.10;109143;1257;71455;-75
2023/04/10 09:54:28;;;;;;;;;;;;;;;12.46;92.33;100438.08;109163;1257;61982;-76
2023/04/10 09:56:58;;;;;;;;;;;;;;;12.44;92.01;100437.77;109178;1257;58177;-79
2023/04/10 09:59:30;;;;;;;;;;;;;;;12.44;92.16;100434.14;109126;1257;73632;-75
2023/04/10 10:02:00;;;;;;;;;;;;;;;12.49;91.57;100433.05;109181;1257;67842;-71
2023/04/10 10:04:29;;;;;;;;;;;;;;;12.54;91.07;100435.13;109261;1257;73467;-70
2023/04/10 10:06:57;;;;;;;;;;;;;;;12.54;90.81;100435.13;109210;1257;62424;-73
2023/04/10 10:09:28;;;;;;;;;;;;;;;12.53;90.31;100437.64;109260;1255;60985;-70
2023/04/10 10:11:56;;;;;;;;;;;;;;;12.56;90.52;100433.42;109241;1257;72613;-76
2023/04/10 10:14:28;;;;;;;;;;;;;;;12.58;90.20;100438.38;109178;1257;69116;-84
2023/04/10 10:16:59;;;;;;;;;;;;;;;12.54;89.92;100433.02;109242;1261;73330;-74
2023/04/10 10:20:04;;;;;;;;;;;;;;;12.56;90.33;100430.68;109288;1257;61574;-80
2023/04/10 10:22:48;;;;;;;;;;;;;;;12.59;90.69;100429.07;109316;1257;61290;-76
2023/04/10 10:25:21;;;;;;;;;;;;;;;12.62;91.18;100429.11;109209;1256;73974;-81
2023/04/10 10:27:49;;;;;;;;;;;;;;;12.65;91.11;100426.56;109354;1255;68916;-82
2023/04/10 10:30:18;;;;;;;;;;;;;;;12.75;90.77;100425.81;109112;1260;72863;-77
2023/04/10 10:32:59;;;;;;;;;;;;;;;12.85;89.13;100423.48;109124;1256;60244;-78
2023/04/10 10:35:29;;;;;;;;;;;;;;;12.83;87.80;100425.50;109149;1257;59833;-80
2023/04/10 10:38:03;;;;;;;;;;;;;;;12.80;88.23;100423.40;109253;1256;72911;-77
2023/04/10 10:40:32;;;;;;;;;;;;;;;12.82;87.56;100423.77;109359;1256;67820;-79
2023/04/10 10:43:07;;;;;;;;;;;;;;;12.79;87.26;100423.44;109282;1259;72649;-75
2023/04/10 10:45:38;;;;;;;;;;;;;;;12.81;87.80;100422.67;109120;1257;60563;-76
2023/04/10 10:48:07;;;;;;;;;;;;;;;12.91;88.12;100419.74;109274;1256;58258;-76
2023/04/10 10:50:57;;;;;;;;;;;;;;;13.05;88.26;100416.80;109189;1256;75337;-75
2023/04/10 10:53:42;;;;;;;;;;;;;;;13.14;87.18;100418.70;109337;1256;69075;-76
2023/04/10 10:56:25;;;;;;;;;;;;;;;13.06;87.37;100420.67;109197;1257;73544;-77
2023/04/10 10:59:00;;;;;;;;;;;;;;;13.05;87.65;100422.16;109268;1256;63438;-84
2023/04/10 11:01:30;;;;;;;;;;;;;;;13.11;87.93;100420.20;109170;1256;58764;-78
2023/04/10 11:03:59;;;;;;;;;;;;;;;13.15;87.45;100418.77;109192;1257;74854;-79
2023/04/10 11:06:47;;;;;;;;;;;;;;;13.18;87.28;100415.63;109123;1256;66469;-75
2023/04/10 11:09:38;;;;;;;;;;;;;;;13.12;86.16;100415.15;109307;1257;73978;-77
2023/04/10 11:12:06;;;;;;;;;;;;;;;13.06;86.21;100415.60;109255;1256;59081;-78
2023/04/10 11:14:35;;;;;;;;;;;;;;;13.06;86.46;100414.95;109282;1256;59379;-77
2023/04/10 11:17:11;;;;;;;;;;;;;;;13.06;86.65;100414.56;109311;1256;73459;-71
2023/04/10 11:20:00;;;;;;;;;;;;;;;13.08;86.54;100418.96;109180;1257;67886;-81
2023/04/10 11:22:31;;;;;;;;;;;;;;;13.20;87.08;100417.42;109207;1257;72543;-72
2023/04/10 11:25:00;;;;;;;;;;;;;;;13.33;86.93;100412.25;109142;1256;60308;-72
2023/04/10 11:27:44;;;;;;;;;;;;;;;13.46;86.32;100418.66;109177;1256;60510;-71
2023/04/10 11:30:28;;;;;;;;;;;;;;;13.54;86.28;100408.91;109307;1257;73169;-77
2023/04/10 11:32:56;;;;;;;;;;;;;;;13.63;85.91;100409.29;109142;1256;68150;-75
2023/04/10 11:35:25;;;;;;;;;;;;;;;13.72;85.15;100406.38;109269;1256;72614;-73
2023/04/10 11:38:12;;;;;;;;;;;;;;;13.75;84.79;100400.36;109154;1257;60742;-71
2023/04/10 11:40:54;;;;;;;;;;;;;;;13.83;84.07;100399.09;109286;1256;60972;-77
2023/04/10 11:43:24;;;;;;;;;;;;;;;13.93;83.44;100397.73;109127;1256;74081;-76
2023/04/10 11:46:03;;;;;;;;;;;;;;;14.00;81.63;100395.20;109158;1257;68079;-72
2023/04/10 11:48:33;;;;;;;;;;;;;;;14.01;79.70;100393.48;109216;1257;72946;-71
2023/04/10 11:51:07;;;;;;;;;;;;;;;14.01;78.04;100385.64;109212;1256;61115;-74
2023/04/10 11:53:39;;;;;;;;;;;;;;;14.03;78.05;100382.91;109150;1257;59293;-76
2023/04/10 11:56:16;;;;;;;;;;;;;;;14.09;75.86;100380.54;109069;1263;74098;-73
2023/04/10 11:58:47;;;;;;;;;;;;;;;14.10;76.25;100373.67;109159;1257;69143;-73
2023/04/10 12:01:20;;;;;;;;;;;;;;;14.21;76.66;100372.70;109235;1257;72902;-74
2023/04/10 12:03:57;;;;;;;;;;;;;;;14.34;76.62;100369.73;109124;1257;61972;-77
2023/04/10 12:06:31;;;;;;;;;;;;;;;14.54;76.34;100367.91;109224;1257;59769;-72
2023/04/10 12:09:11;;;;;;;;;;;;;;;14.73;75.60;100362.58;109152;1257;73486;-69
2023/04/10 12:11:48;;;;;;;;;;;;;;;14.93;74.37;100363.09;109170;1258;68654;-81
2023/04/10 12:14:34;;;;;;;;;;;;;;;15.10;72.93;100357.82;109121;1257;72458;-77
2023/04/10 12:17:06;;;;;;;;;;;;;;;15.14;71.08;100350.69;109133;1257;58988;-78
2023/04/10 12:19:52;;;;;;;;;;;;;;;15.06;70.30;100350.97;109182;1257;58074;-76
2023/04/10 12:22:23;;;;;;;;;;;;;;;14.97;70.11;100347.94;109104;1257;73015;-83
2023/04/10 12:24:53;;;;;;;;;;;;;;;14.88;70.23;100348.77;109263;1257;67103;-72
2023/04/10 12:27:25;;;;;;;;;;;;;;;14.82;70.24;100353.86;109242;1256;71683;-76
2023/04/10 12:29:57;;;;;;;;;;;;;;;14.73;70.03;100346.98;109207;1257;58961;-82
2023/04/10 12:32:26;;;;;;;;;;;;;;;14.63;70.16;100345.78;109156;1257;59964;-73